createdAt,value
2019-01-02T00:00:45.531Z,79.40
2019-01-02T00:03:14.561Z,79.42
2019-01-02T00:05:43.628Z,79.49
2019-01-02T00:08:12.664Z,79.48
2019-01-02T00:10:41.712Z,78.89
2019-01-02T00:13:11.768Z,78.96
2019-01-02T00:15:40.815Z,79.41
2019-01-02T00:18:09.873Z,79.57
2019-01-02T00:20:39.021Z,79.70
2019-01-02T00:23:11.166Z,79.72
2019-01-02T00:25:40.238Z,79.63
2019-01-02T00:28:09.290Z,79.64
2019-01-02T00:30:38.338Z,79.64
2019-01-02T00:33:07.447Z,79.13
2019-01-02T00:35:36.498Z,79.24
2019-01-02T00:38:05.528Z,79.39
2019-01-02T00:40:34.601Z,79.46
2019-01-02T00:43:24.850Z,79.48
2019-01-02T00:45:53.909Z,79.65
2019-01-02T00:48:22.967Z,79.93
2019-01-02T00:50:52.013Z,79.98
2019-01-02T00:56:18.623Z,80.29
2019-01-02T00:58:47.860Z,80.75
2019-01-02T01:01:17.692Z,80.86
2019-01-02T01:03:58.150Z,80.85
2019-01-02T01:06:27.194Z,80.95
2019-01-02T01:08:56.236Z,80.84
2019-01-02T01:11:25.346Z,80.99
2019-01-02T01:13:54.394Z,80.93
2019-01-02T01:16:23.421Z,81.10
2019-01-02T01:18:52.487Z,80.59
2019-01-02T01:21:21.535Z,80.86
2019-01-02T01:23:50.581Z,80.81
2019-01-02T01:26:19.651Z,80.54
2019-01-02T01:28:48.701Z,80.71
2019-01-02T01:31:17.752Z,80.73
2019-01-02T01:36:41.197Z,80.99
2019-01-02T01:39:10.228Z,81.16
2019-01-02T01:41:39.275Z,81.37
2019-01-02T01:44:08.328Z,81.28
2019-01-02T01:46:37.402Z,81.04
2019-01-02T01:49:06.439Z,81.02
2019-01-02T01:51:35.484Z,81.03
2019-01-02T01:54:04.713Z,81.31
2019-01-02T01:56:33.753Z,81.81
2019-01-02T01:59:02.802Z,81.79
2019-01-02T02:01:31.868Z,81.46
2019-01-02T02:04:01.960Z,80.98
2019-01-02T02:06:31.000Z,80.90
2019-01-02T02:09:00.068Z,80.81
2019-01-02T02:11:29.115Z,80.50
2019-01-02T02:14:11.784Z,80.99
2019-01-02T02:16:40.825Z,81.00
2019-01-02T02:19:09.859Z,81.43
2019-01-02T02:21:38.925Z,81.85
2019-01-02T02:24:07.967Z,81.93
2019-01-02T02:26:37.024Z,81.85
2019-01-02T02:29:06.115Z,81.97
2019-01-02T02:31:35.159Z,82.21
2019-01-02T02:34:04.207Z,82.19
2019-01-02T02:36:33.293Z,81.95
2019-01-02T02:39:02.334Z,81.91
2019-01-02T02:41:31.380Z,81.96
2019-01-02T02:44:20.267Z,81.73
2019-01-02T02:46:49.293Z,81.77
2019-01-02T02:49:18.334Z,82.03
2019-01-02T02:51:47.437Z,82.01
2019-01-02T02:54:16.501Z,82.34
2019-01-02T02:56:45.530Z,82.18
2019-01-02T02:59:14.598Z,82.23
2019-01-02T03:01:43.742Z,82.45
2019-01-02T03:04:12.773Z,82.52
2019-01-02T03:06:42.287Z,82.33
2019-01-02T03:09:10.890Z,82.08
2019-01-02T03:11:39.936Z,82.61
2019-01-02T03:14:09.204Z,83.06
2019-01-02T03:16:38.246Z,83.58
2019-01-02T03:19:07.341Z,83.92
2019-01-02T03:21:36.421Z,84.27
2019-01-02T03:24:05.457Z,84.20
2019-01-02T03:26:34.491Z,82.53
2019-01-02T03:29:03.563Z,82.48
2019-01-02T03:31:32.624Z,81.69
2019-01-02T03:34:01.671Z,81.34
2019-01-02T03:36:30.954Z,80.75
2019-01-02T03:39:00.002Z,79.82
2019-01-02T03:41:29.045Z,80.89
2019-01-02T03:43:58.113Z,81.70
2019-01-02T03:46:27.162Z,82.04
2019-01-02T03:48:56.198Z,81.66
2019-01-02T03:51:25.274Z,80.29
2019-01-02T03:53:54.316Z,78.23
2019-01-02T03:56:23.362Z,75.08
2019-01-02T03:58:52.454Z,75.89
2019-01-02T04:01:21.507Z,75.72
2019-01-02T04:03:50.550Z,75.97
2019-01-02T04:06:19.637Z,74.82
2019-01-02T04:08:48.669Z,70.37
2019-01-02T04:11:17.717Z,69.98
2019-01-02T04:13:46.785Z,70.03
2019-01-02T04:16:15.826Z,70.36
2019-01-02T04:18:44.880Z,70.92
2019-01-02T04:21:14.096Z,72.16
2019-01-02T04:23:43.132Z,70.96
2019-01-02T04:26:12.165Z,72.31
2019-01-02T04:28:41.236Z,74.21
2019-01-02T04:31:10.286Z,74.99
2019-01-02T04:33:39.333Z,74.95
2019-01-02T04:36:08.407Z,75.20
2019-01-02T04:38:37.457Z,75.32
2019-01-02T04:41:06.505Z,75.11
2019-01-02T04:43:35.622Z,75.32
2019-01-02T04:46:04.675Z,74.90
2019-01-02T04:48:33.716Z,74.19
2019-01-02T04:51:02.781Z,73.97
2019-01-02T04:53:31.819Z,73.01
2019-01-02T04:56:00.864Z,73.89
2019-01-02T04:58:29.936Z,72.56
2019-01-02T05:00:58.972Z,72.66
2019-01-02T05:03:28.025Z,73.17
2019-01-02T05:05:57.204Z,73.28
2019-01-02T05:08:26.240Z,73.17
2019-01-02T05:10:55.277Z,73.04
2019-01-02T05:13:24.353Z,72.61
2019-01-02T05:15:53.463Z,72.94
2019-01-02T05:18:22.506Z,75.54
2019-01-02T05:20:51.569Z,77.74
2019-01-02T05:23:20.616Z,77.97
2019-01-02T05:25:49.668Z,77.90
2019-01-02T05:28:18.782Z,78.04
2019-01-02T05:30:47.834Z,78.48
2019-01-02T05:33:16.869Z,78.15
2019-01-02T05:35:46.153Z,77.69
2019-01-02T05:38:15.198Z,76.97
2019-01-02T05:40:44.254Z,77.11
2019-01-02T05:43:13.327Z,77.64
2019-01-02T05:45:42.374Z,76.53
2019-01-02T05:48:11.420Z,75.96
2019-01-02T05:50:40.525Z,75.45
2019-01-02T05:53:24.225Z,74.44
2019-01-02T05:55:53.302Z,73.98
2019-01-02T05:58:22.338Z,73.88
2019-01-02T06:00:51.400Z,71.52
2019-01-02T06:03:20.476Z,71.78
2019-01-02T06:05:49.526Z,72.09
2019-01-02T06:08:18.559Z,72.71
2019-01-02T06:10:47.679Z,73.02
2019-01-02T06:13:17.551Z,70.41
2019-01-02T06:15:46.594Z,69.98
2019-01-02T06:18:16.251Z,67.90
2019-01-02T06:20:45.293Z,69.31
2019-01-02T06:23:14.344Z,68.58
2019-01-02T06:25:43.421Z,68.83
2019-01-02T06:28:12.469Z,69.64
2019-01-02T06:30:41.515Z,69.86
2019-01-02T06:33:10.629Z,70.08
2019-01-02T06:35:39.679Z,67.83
2019-01-02T06:38:08.723Z,68.73
2019-01-02T06:40:38.015Z,68.74
2019-01-02T06:43:07.065Z,70.03
2019-01-02T06:45:36.115Z,71.44
2019-01-02T06:48:05.198Z,71.93
2019-01-02T06:50:34.265Z,73.21
2019-01-02T06:53:03.310Z,73.31
2019-01-02T06:55:32.392Z,73.39
2019-01-02T06:58:01.436Z,73.38
2019-01-02T07:00:30.475Z,73.69
2019-01-02T07:02:59.553Z,74.97
2019-01-02T07:05:28.603Z,75.01
2019-01-02T07:07:57.640Z,74.54
2019-01-02T07:10:26.707Z,74.86
2019-01-02T07:12:55.745Z,75.29
2019-01-02T07:15:24.789Z,75.82
2019-01-02T07:17:53.892Z,75.82
2019-01-02T07:20:22.936Z,74.92
2019-01-02T07:22:51.982Z,74.82
2019-01-02T07:25:21.052Z,76.81
2019-01-02T07:28:12.911Z,78.22
2019-01-02T07:30:43.427Z,79.50
2019-01-02T07:38:40.256Z,76.94
2019-01-02T07:43:45.950Z,75.79
2019-01-02T07:46:33.569Z,75.12
2019-01-02T07:49:08.463Z,75.02
2019-01-02T07:51:42.580Z,75.38
2019-01-02T07:57:04.094Z,76.88
2019-01-02T07:59:38.933Z,77.69
2019-01-02T08:02:23.845Z,77.94
2019-01-02T08:07:54.267Z,78.59
2019-01-02T08:10:24.818Z,78.04
2019-01-02T08:12:59.559Z,77.83
2019-01-02T08:15:30.543Z,77.79
2019-01-02T08:18:02.181Z,77.83
2019-01-02T08:20:50.361Z,77.78
2019-01-02T08:23:19.487Z,76.92
2019-01-02T08:26:03.050Z,76.00
2019-01-02T08:28:50.207Z,75.65
2019-01-02T08:31:23.813Z,75.56
2019-01-02T08:34:06.382Z,74.55
2019-01-02T08:36:35.425Z,75.13
2019-01-02T08:39:11.115Z,74.47
2019-01-02T08:41:46.694Z,76.19
2019-01-02T08:44:16.558Z,77.29
2019-01-02T08:46:51.447Z,77.62
2019-01-02T08:49:22.461Z,77.00
2019-01-02T08:51:54.292Z,75.71
2019-01-02T08:54:27.333Z,74.28
2019-01-02T08:56:59.912Z,69.71
2019-01-02T08:59:30.777Z,66.83
2019-01-02T09:02:02.532Z,67.43
2019-01-02T09:04:32.550Z,67.00
2019-01-02T09:07:07.515Z,68.28
2019-01-02T09:09:38.399Z,67.77
2019-01-02T09:12:14.023Z,68.49
2019-01-02T09:14:54.793Z,66.96
2019-01-02T09:17:24.625Z,67.54
2019-01-02T09:19:54.601Z,65.48
2019-01-02T09:22:39.369Z,66.36
2019-01-02T09:25:12.949Z,63.74
2019-01-02T09:27:46.856Z,61.12
2019-01-02T09:30:18.478Z,61.05
2019-01-02T09:32:53.471Z,60.95
2019-01-02T09:35:32.216Z,61.80
2019-01-02T09:38:14.892Z,61.64
2019-01-02T09:40:44.833Z,63.76
2019-01-02T09:43:15.715Z,63.53
2019-01-02T09:46:00.370Z,63.67
2019-01-02T09:48:42.869Z,63.40
2019-01-02T09:51:21.584Z,62.77
2019-01-02T09:53:55.661Z,61.31
2019-01-02T09:56:30.687Z,60.45
2019-01-02T09:59:15.661Z,59.67
2019-01-02T10:01:47.207Z,58.14
2019-01-02T10:04:16.277Z,55.68
2019-01-02T10:06:45.333Z,56.74
2019-01-02T10:09:17.855Z,61.29
2019-01-02T10:11:51.429Z,65.29
2019-01-02T10:14:25.344Z,68.55
2019-01-02T10:17:00.851Z,70.19
2019-01-02T10:19:33.900Z,71.36
2019-01-02T10:22:03.745Z,73.78
2019-01-02T10:24:34.535Z,73.84
2019-01-02T10:27:04.499Z,72.53
2019-01-02T10:29:44.603Z,71.70
2019-01-02T10:32:19.324Z,72.01
2019-01-02T10:34:51.089Z,71.85
2019-01-02T10:37:23.678Z,72.67
2019-01-02T10:39:59.627Z,71.46
2019-01-02T10:42:32.179Z,71.29
2019-01-02T10:45:14.509Z,69.79
2019-01-02T10:47:45.424Z,69.76
2019-01-02T10:50:16.346Z,68.04
2019-01-02T10:52:50.934Z,66.98
2019-01-02T10:55:26.607Z,65.71
2019-01-02T10:57:56.453Z,66.50
2019-01-02T11:00:30.255Z,66.10
2019-01-02T11:03:07.834Z,66.16
2019-01-02T11:05:40.366Z,64.82
2019-01-02T11:08:13.521Z,65.10
2019-01-02T11:10:42.153Z,63.95
2019-01-02T11:13:14.027Z,63.82
2019-01-02T11:15:43.141Z,63.69
2019-01-02T11:18:13.119Z,64.87
2019-01-02T11:20:53.960Z,65.60
2019-01-02T11:23:39.813Z,65.96
2019-01-02T11:26:09.819Z,66.74
2019-01-02T11:28:44.735Z,68.23
2019-01-02T11:31:20.522Z,68.30
2019-01-02T11:33:50.385Z,68.16
2019-01-02T11:36:21.301Z,67.33
2019-01-02T11:38:56.991Z,67.37
2019-01-02T11:41:31.883Z,65.64
2019-01-02T11:44:03.470Z,66.11
2019-01-02T11:46:32.853Z,66.04
2019-01-02T11:49:01.900Z,64.96
2019-01-02T11:51:30.963Z,64.01
2019-01-02T11:54:00.349Z,63.64
2019-01-02T11:56:29.395Z,63.50
2019-01-02T11:58:58.431Z,63.80
2019-01-02T12:01:27.510Z,64.62
2019-01-02T12:03:56.556Z,64.47
2019-01-02T12:06:25.580Z,65.07
2019-01-02T12:08:54.692Z,64.75
2019-01-02T12:11:23.736Z,64.53
2019-01-02T12:13:52.782Z,64.48
2019-01-02T12:16:21.926Z,64.81
2019-01-02T12:18:50.980Z,64.30
2019-01-02T12:21:20.020Z,64.55
2019-01-02T12:23:49.099Z,65.33
2019-01-02T12:26:18.147Z,65.33
2019-01-02T12:28:47.198Z,64.73
2019-01-02T12:31:16.395Z,63.80
2019-01-02T12:33:45.439Z,63.96
2019-01-02T12:36:14.488Z,63.34
2019-01-02T12:38:43.578Z,63.15
2019-01-02T12:41:12.635Z,64.41
2019-01-02T12:43:42.660Z,64.61
2019-01-02T12:46:10.766Z,64.62
2019-01-02T12:48:39.828Z,64.07
2019-01-02T12:51:08.875Z,61.86
2019-01-02T12:53:43.534Z,62.24
2019-01-02T12:56:07.057Z,60.59
2019-01-02T12:58:36.113Z,60.09
2019-01-02T13:01:05.182Z,59.74
2019-01-02T13:03:45.941Z,56.69
2019-01-02T13:06:26.742Z,56.83
2019-01-02T13:09:12.608Z,57.65
2019-01-02T13:11:45.362Z,58.73
2019-01-02T13:14:17.122Z,58.83
2019-01-02T13:16:54.995Z,57.59
2019-01-02T13:19:26.747Z,57.63
2019-01-02T13:22:02.558Z,57.40
2019-01-02T13:24:32.429Z,57.76
2019-01-02T13:27:01.481Z,57.22
2019-01-02T13:29:30.783Z,57.76
2019-01-02T13:32:06.606Z,57.25
2019-01-02T13:34:39.202Z,58.09
2019-01-02T13:37:10.760Z,58.14
2019-01-02T13:39:51.588Z,58.45
2019-01-02T13:42:21.440Z,58.71
2019-01-02T13:44:50.478Z,58.71
2019-01-02T13:47:28.914Z,60.10
2019-01-02T13:49:58.747Z,60.45
2019-01-02T13:52:27.788Z,59.81
2019-01-02T13:54:56.881Z,58.62
2019-01-02T13:57:25.908Z,59.11
2019-01-02T13:59:55.030Z,58.72
2019-01-02T14:02:24.108Z,58.79
2019-01-02T14:04:53.148Z,57.92
2019-01-02T14:07:22.197Z,56.41
2019-01-02T14:09:51.303Z,56.78
2019-01-02T14:12:20.341Z,56.69
2019-01-02T14:14:49.391Z,58.66
2019-01-02T14:17:18.488Z,58.68
2019-01-02T14:19:47.523Z,59.33
2019-01-02T14:22:16.571Z,58.53
2019-01-02T14:24:45.648Z,58.09
2019-01-02T14:27:14.695Z,54.37
2019-01-02T14:29:43.754Z,53.38
2019-01-02T14:32:12.863Z,54.52
2019-01-02T14:34:41.916Z,56.07
2019-01-02T14:37:10.960Z,57.84
2019-01-02T14:39:40.033Z,58.53
2019-01-02T14:42:09.056Z,58.82
2019-01-02T14:44:38.102Z,58.52
2019-01-02T14:47:07.487Z,58.18
2019-01-02T14:49:36.543Z,58.17
2019-01-02T14:52:05.583Z,57.49
2019-01-02T14:54:34.685Z,54.55
2019-01-02T14:57:03.734Z,52.93
2019-01-02T14:59:32.787Z,52.92
2019-01-02T15:02:01.871Z,54.99
2019-01-02T15:04:30.921Z,58.50
2019-01-02T15:06:59.986Z,60.04
2019-01-02T15:09:29.075Z,61.42
2019-01-02T15:11:58.152Z,62.70
2019-01-02T15:14:27.207Z,63.63
2019-01-02T15:16:56.317Z,64.41
2019-01-02T15:19:26.129Z,65.73
2019-01-02T15:21:55.409Z,66.27
2019-01-02T15:24:24.245Z,66.19
2019-01-02T15:26:53.300Z,66.70
2019-01-02T15:29:22.354Z,66.58
2019-01-02T15:31:51.424Z,66.34
2019-01-02T15:34:20.475Z,65.49
2019-01-02T15:36:49.528Z,65.21
2019-01-02T15:39:18.607Z,65.26
2019-01-02T15:41:47.668Z,65.47
2019-01-02T15:44:16.730Z,66.25
2019-01-02T15:46:45.810Z,66.84
2019-01-02T15:49:14.864Z,67.49
2019-01-02T15:51:43.907Z,67.90
2019-01-02T15:54:13.003Z,68.49
2019-01-02T15:56:42.048Z,68.31
2019-01-02T15:59:11.099Z,68.26
2019-01-02T16:01:40.193Z,67.51
2019-01-02T16:04:09.233Z,66.88
2019-01-02T16:06:38.277Z,66.13
2019-01-02T16:09:07.363Z,65.86
2019-01-02T16:11:36.402Z,65.72
2019-01-02T16:14:16.807Z,66.13
2019-01-02T16:16:40.684Z,65.89
2019-01-02T16:19:09.730Z,66.46
2019-01-02T16:21:38.854Z,66.62
2019-01-02T16:24:07.924Z,66.92
2019-01-02T16:26:36.972Z,68.03
2019-01-02T16:29:06.057Z,70.83
2019-01-02T16:31:35.101Z,70.63
2019-01-02T16:34:04.149Z,70.25
2019-01-02T16:36:33.992Z,70.02
2019-01-02T16:39:02.261Z,70.42
2019-01-02T16:41:31.328Z,70.10
2019-01-02T16:47:05.320Z,68.21
2019-01-02T16:49:34.406Z,68.13
2019-01-02T16:52:03.457Z,67.33
2019-01-02T16:54:32.507Z,68.26
2019-01-02T16:57:01.583Z,68.40
2019-01-02T16:59:30.638Z,68.75
2019-01-02T17:01:59.701Z,68.75
2019-01-02T17:04:28.799Z,68.14
2019-01-02T17:06:57.845Z,67.88
2019-01-02T17:09:26.895Z,69.38
2019-01-02T17:11:55.982Z,69.89
2019-01-02T17:14:25.041Z,70.36
2019-01-02T17:16:54.106Z,70.63
2019-01-02T17:19:23.190Z,71.38
2019-01-02T17:21:52.242Z,71.26
2019-01-02T17:24:21.305Z,71.21
2019-01-02T17:26:50.734Z,70.09
2019-01-02T17:29:19.783Z,71.26
2019-01-02T17:31:48.841Z,72.17
2019-01-02T17:34:17.904Z,71.45
2019-01-02T17:36:46.944Z,71.86
2019-01-02T17:39:15.983Z,72.08
2019-01-02T17:41:45.048Z,70.98
2019-01-02T17:44:14.088Z,71.15
2019-01-02T17:46:43.148Z,71.05
2019-01-02T17:49:12.261Z,70.92
2019-01-02T17:51:41.307Z,70.95
2019-01-02T17:54:10.359Z,70.84
2019-01-02T17:56:39.423Z,69.18
2019-01-02T17:59:08.487Z,69.77
2019-01-02T18:01:37.543Z,68.79
2019-01-02T18:04:06.623Z,68.71
2019-01-02T18:06:35.671Z,68.64
2019-01-02T18:09:04.713Z,68.24
2019-01-02T18:11:33.904Z,68.37
2019-01-02T18:14:02.948Z,68.22
2019-01-02T18:16:32.009Z,67.34
2019-01-02T18:19:01.094Z,67.34
2019-01-02T18:21:30.140Z,65.50
2019-01-02T18:23:59.180Z,65.79
2019-01-02T18:26:28.254Z,66.25
2019-01-02T18:28:57.298Z,66.85
2019-01-02T18:31:26.339Z,67.78
2019-01-02T18:33:55.431Z,67.92
2019-01-02T18:36:24.516Z,68.08
2019-01-02T18:38:53.525Z,69.32
2019-01-02T18:41:22.594Z,73.95
2019-01-02T18:43:51.635Z,74.59
2019-01-02T18:46:20.685Z,75.35
2019-01-02T18:48:49.750Z,74.51
2019-01-02T18:51:18.797Z,74.00
2019-01-02T18:53:47.846Z,73.81
2019-01-02T18:56:16.940Z,73.92
2019-01-02T18:58:46.004Z,73.15
2019-01-02T19:01:15.064Z,72.79
2019-01-02T19:03:44.144Z,72.33
2019-01-02T19:06:13.202Z,71.29
2019-01-02T19:08:42.253Z,69.22
2019-01-02T19:11:11.325Z,67.47
2019-01-02T19:13:40.365Z,67.08
2019-01-02T19:16:09.407Z,66.70
2019-01-02T19:18:38.597Z,66.52
2019-01-02T19:21:07.668Z,66.75
2019-01-02T19:23:36.718Z,63.31
2019-01-02T19:26:05.790Z,63.96
2019-01-02T19:28:34.850Z,64.25
2019-01-02T19:31:03.898Z,62.90
2019-01-02T19:33:32.970Z,63.99
2019-01-02T19:36:02.018Z,64.09
2019-01-02T19:38:31.063Z,63.78
2019-01-02T19:41:00.181Z,64.70
2019-01-02T19:43:34.940Z,64.91
2019-01-02T19:46:04.012Z,64.38
2019-01-02T19:48:33.059Z,63.30
2019-01-02T19:51:02.092Z,63.42
2019-01-02T19:53:31.159Z,62.29
2019-01-02T19:56:00.213Z,60.82
2019-01-02T19:58:29.262Z,61.92
2019-01-02T20:00:58.365Z,60.13
2019-01-02T20:03:27.415Z,58.74
2019-01-02T20:05:56.464Z,59.00
2019-01-02T20:08:25.536Z,56.33
2019-01-02T20:10:54.592Z,58.00
2019-01-02T20:13:23.633Z,57.91
2019-01-02T20:15:52.698Z,57.94
2019-01-02T20:18:21.760Z,56.48
2019-01-02T20:20:50.824Z,57.60
2019-01-02T20:23:19.953Z,56.83
2019-01-02T20:25:48.997Z,56.40
2019-01-02T20:28:18.039Z,55.07
2019-01-02T20:30:47.107Z,56.70
2019-01-02T20:33:16.145Z,57.13
2019-01-02T20:35:45.193Z,57.60
2019-01-02T20:38:14.258Z,57.84
2019-01-02T20:40:43.313Z,58.71
2019-01-02T20:43:12.356Z,58.63
2019-01-02T20:45:41.534Z,58.03
2019-01-02T20:48:10.572Z,57.47
2019-01-02T20:50:39.621Z,58.52
2019-01-02T20:53:08.713Z,58.16
2019-01-02T20:55:37.766Z,58.23
2019-01-02T20:58:06.823Z,58.51
2019-01-02T21:00:35.901Z,58.06
2019-01-02T21:03:04.949Z,58.56
2019-01-02T21:05:33.979Z,59.40
2019-01-02T21:08:03.095Z,58.64
2019-01-02T21:10:32.138Z,59.33
2019-01-02T21:13:01.186Z,59.48
2019-01-02T21:15:30.261Z,59.53
2019-01-02T21:17:59.334Z,59.07
2019-01-02T21:20:28.398Z,57.69
2019-01-02T21:22:58.430Z,58.06
2019-01-02T21:25:27.481Z,58.10
2019-01-02T21:27:56.513Z,57.30
2019-01-02T21:30:25.602Z,56.87
2019-01-02T21:32:54.647Z,59.24
2019-01-02T21:35:23.701Z,58.86
2019-01-02T21:37:52.771Z,57.98
2019-01-02T21:40:21.810Z,57.29
2019-01-02T21:42:51.874Z,59.04
2019-01-02T21:45:20.936Z,59.02
2019-01-02T21:47:49.970Z,58.30
2019-01-02T21:50:19.016Z,58.10
2019-01-02T21:52:48.104Z,57.50
2019-01-02T21:55:17.140Z,55.83
2019-01-02T21:57:46.191Z,56.91
2019-01-02T22:00:15.258Z,58.61
2019-01-02T22:02:44.297Z,60.87
2019-01-02T22:05:13.333Z,62.82
2019-01-02T22:07:42.408Z,63.67
2019-01-02T22:10:11.455Z,64.43
2019-01-02T22:12:40.494Z,64.91
2019-01-02T22:15:09.926Z,65.90
2019-01-02T22:17:40.363Z,66.50
2019-01-02T22:20:08.019Z,66.66
2019-01-02T22:22:37.092Z,67.22
2019-01-02T22:25:06.158Z,66.58
2019-01-02T22:27:35.191Z,67.11
2019-01-02T22:30:04.263Z,67.57
2019-01-02T22:32:33.308Z,68.11
2019-01-02T22:35:02.338Z,68.17
2019-01-02T22:37:31.444Z,66.22
2019-01-02T22:40:00.504Z,65.84
2019-01-02T22:42:29.550Z,65.65
2019-01-02T22:44:58.621Z,65.85
2019-01-02T22:47:27.661Z,65.91
2019-01-02T22:49:56.703Z,65.48
2019-01-02T22:52:25.757Z,65.17
2019-01-02T22:54:54.807Z,64.68
2019-01-02T22:57:23.843Z,64.51
2019-01-02T22:59:52.942Z,63.53
2019-01-02T23:02:21.985Z,63.25
2019-01-02T23:04:51.015Z,61.93
2019-01-02T23:07:24.015Z,59.41
2019-01-02T23:09:55.020Z,66.57
2019-01-02T23:12:24.062Z,68.45
2019-01-02T23:14:58.664Z,68.12
2019-01-02T23:17:31.498Z,67.70
2019-01-02T23:20:06.166Z,67.88
2019-01-02T23:22:37.155Z,73.02
2019-01-02T23:25:07.038Z,74.87
2019-01-02T23:27:41.607Z,73.96
2019-01-02T23:33:07.756Z,72.76
2019-01-02T23:35:36.782Z,71.98
2019-01-02T23:38:07.668Z,71.22
2019-01-02T23:40:42.337Z,70.81
2019-01-02T23:43:13.180Z,69.32
2019-01-02T23:45:43.154Z,68.23
2019-01-02T23:48:17.139Z,67.50
2019-01-02T23:50:50.091Z,65.35
2019-01-02T23:53:19.147Z,63.43
2019-01-02T23:55:53.838Z,60.51
2019-01-02T23:58:26.108Z,61.19
